Time;durP1;ratioP1;P1;durP2;ratioP2;P2;SDS_P1;SDS_P2;PMS_P1;PMS_P2;Temp;Humidity;BMP_temperature;BMP_pressure;BME280_temperature;BME280_humidity;BME280_pressure;Samples;Min_cycle;Max_cycle;Signal;HPM_P1;HPM_P2
2022/11/14 00:00:15;;;;;;;83.30;31.87;;;;;;;8.38;100.00;101628.63;1784507;80;25544;-50
2022/11/14 00:02:43;;;;;;;85.30;31.75;;;;;;;8.38;100.00;101628.63;1753529;81;25616;-52
2022/11/14 00:05:10;;;;;;;91.15;31.23;;;;;;;8.37;100.00;101616.21;1753439;81;28192;-54
2022/11/14 00:07:37;;;;;;;86.60;32.20;;;;;;;8.37;100.00;101628.34;1753356;81;25757;-51
2022/11/14 00:10:10;;;;;;;87.22;32.98;;;;;;;8.37;100.00;101625.65;1753472;81;25385;-51
2022/11/14 00:12:36;;;;;;;78.50;30.70;;;;;;;8.35;100.00;101627.26;1752597;81;25845;-50
2022/11/14 00:15:07;;;;;;;82.37;31.77;;;;;;;8.35;100.00;101628.60;1752142;81;25727;-51
2022/11/14 00:17:33;;;;;;;74.85;30.15;;;;;;;8.35;100.00;101624.56;1752062;81;27498;-53
2022/11/14 00:20:01;;;;;;;82.27;30.62;;;;;;;8.34;100.00;101623.47;1751973;81;25656;-49
2022/11/14 00:22:27;;;;;;;82.30;31.33;;;;;;;8.33;100.00;101615.93;1752766;81;25881;-49
2022/11/14 00:24:54;;;;;;;78.72;30.55;;;;;;;8.33;100.00;101624.56;1753416;81;25475;-49
2022/11/14 00:27:20;;;;;;;78.57;30.48;;;;;;;8.31;100.00;101622.12;1753446;81;25598;-50
2022/11/14 00:29:46;;;;;;;82.80;31.23;;;;;;;8.31;100.00;101615.89;1753278;81;27469;-52
2022/11/14 00:32:12;;;;;;;67.22;28.52;;;;;;;8.31;100.00;101625.33;1753224;81;32452;-51
2022/11/14 00:34:38;;;;;;;75.40;30.92;;;;;;;8.30;100.00;101621.84;1735088;82;25651;-50
2022/11/14 00:37:04;;;;;;;70.80;30.35;;;;;;;8.32;100.00;101616.98;1734984;82;25759;-50
2022/11/14 00:39:30;;;;;;;73.65;29.12;;;;;;;8.32;100.00;101616.98;1735033;82;25641;-51
2022/11/14 00:41:56;;;;;;;78.02;29.20;;;;;;;8.32;100.00;101614.30;1734956;82;27536;-50
2022/11/14 00:44:23;;;;;;;69.85;28.52;;;;;;;8.32;100.00;101615.64;1735131;82;25572;-52
2022/11/14 00:46:49;;;;;;;72.67;28.45;;;;;;;8.34;100.00;101614.03;1735003;82;25415;-50
2022/11/14 00:49:15;;;;;;;70.87;28.65;;;;;;;8.33;100.00;101609.73;1734885;82;25625;-50
2022/11/14 00:51:41;;;;;;;72.58;28.95;;;;;;;8.34;100.00;101609.98;1733881;82;25904;-51
2022/11/14 00:54:07;;;;;;;67.08;28.23;;;;;;;8.33;100.00;101612.43;1734464;82;27527;-50
2022/11/14 00:56:34;;;;;;;77.03;28.30;;;;;;;8.31;100.00;101601.91;1734291;82;25580;-52
2022/11/14 00:59:00;;;;;;;75.32;28.83;;;;;;;8.32;100.00;101601.36;1734481;82;25799;-51
2022/11/14 01:01:26;;;;;;;81.42;30.08;;;;;;;8.33;100.00;101601.10;1734970;82;25550;-51
2022/11/14 01:03:52;;;;;;;81.08;30.00;;;;;;;8.32;100.00;101594.62;1734991;82;25637;-50
2022/11/14 01:06:20;;;;;;;75.83;29.52;;;;;;;8.32;100.00;101601.36;1735019;82;27530;-51
2022/11/14 01:08:51;;;;;;;73.35;28.05;;;;;;;8.30;100.00;101598.12;1734605;82;25589;-50
2022/11/14 01:11:21;;;;;;;69.75;28.07;;;;;;;8.30;100.00;101596.23;1734761;82;25613;-50
2022/11/14 01:13:48;;;;;;;73.60;29.60;;;;;;;8.29;100.00;101591.92;1734944;82;25602;-50
2022/11/14 01:16:14;;;;;;;73.15;28.35;;;;;;;8.26;100.00;101588.40;1735213;82;25636;-50
2022/11/14 01:18:42;;;;;;;66.02;28.50;;;;;;;8.25;100.00;101589.45;1735138;82;27456;-50
2022/11/14 01:21:13;;;;;;;59.95;26.33;;;;;;;8.22;100.00;101585.42;1734989;82;25446;-50
2022/11/14 01:23:42;;;;;;;64.47;27.60;;;;;;;8.20;100.00;101583.50;1735132;82;25615;-50
2022/11/14 01:26:13;;;;;;;57.15;25.10;;;;;;;8.18;100.00;101578.11;1734951;82;25594;-50
2022/11/14 01:28:41;;;;;;;62.65;25.48;;;;;;;8.18;100.00;101577.56;1735095;82;25631;-50
2022/11/14 01:31:19;;;;;;;54.48;23.57;;;;;;;8.17;100.00;101585.39;1734857;82;27532;-50
2022/11/14 01:33:49;;;;;;;56.77;24.25;;;;;;;8.12;100.00;101571.88;1733512;82;25943;-51
2022/11/14 01:36:19;;;;;;;60.58;25.05;;;;;;;8.10;100.00;101568.61;1735123;82;25583;-51
2022/11/14 01:38:53;;;;;;;57.23;23.80;;;;;;;8.08;100.00;101571.31;1734883;82;25520;-50
2022/11/14 01:41:24;;;;;;;55.20;23.50;;;;;;;8.05;100.00;101565.89;1735311;82;25619;-50
2022/11/14 01:43:51;;;;;;;61.58;23.77;;;;;;;8.06;100.00;101566.72;1753365;81;27502;-51
2022/11/14 01:46:29;;;;;;;58.87;24.37;;;;;;;8.04;100.00;101567.78;1752998;81;25620;-50
2022/11/14 01:49:13;;;;;;;64.37;23.95;;;;;;;8.02;100.00;101569.13;1753164;81;25596;-50
2022/11/14 01:51:53;;;;;;;66.72;25.85;;;;;;;7.99;100.00;101562.91;1752753;81;25591;-50
2022/11/14 01:54:28;;;;;;;60.15;23.45;;;;;;;7.98;100.00;101560.73;1748908;81;25458;-50
2022/11/14 01:57:00;;;;;;;58.55;25.95;;;;;;;7.97;100.00;101551.59;1735002;82;27508;-49
2022/11/14 01:59:37;;;;;;;59.18;23.25;;;;;;;7.95;100.00;101556.40;1734853;82;25657;-50
2022/11/14 02:02:08;;;;;;;57.88;22.58;;;;;;;7.94;100.00;101556.14;1731492;82;25558;-50
2022/11/14 02:04:40;;;;;;;54.67;23.73;;;;;;;7.92;100.00;101549.67;1748964;81;25619;-50
2022/11/14 02:07:10;;;;;;;57.17;22.87;;;;;;;7.92;100.00;101550.21;1753412;81;25473;-50
2022/11/14 02:09:42;;;;;;;60.10;23.18;;;;;;;7.93;100.00;101550.47;1753073;81;27346;-50
2022/11/14 02:12:15;;;;;;;55.28;22.62;;;;;;;7.91;100.00;101543.98;1753209;81;25590;-50
2022/11/14 02:14:47;;;;;;;57.85;22.45;;;;;;;7.92;100.00;101548.86;1753523;81;25444;-50
2022/11/14 02:17:18;;;;;;;56.25;23.02;;;;;;;7.91;100.00;101543.98;1753368;81;25587;-50
2022/11/14 02:19:53;;;;;;;54.93;23.67;;;;;;;7.90;100.00;101543.73;1753332;81;25617;-49
2022/11/14 02:22:19;;;;;;;60.58;24.43;;;;;;;7.89;100.00;101536.70;1753227;81;27540;-51
2022/11/14 02:24:45;;;;;;;59.83;23.38;;;;;;;7.89;100.00;101542.64;1753186;81;25540;-50
2022/11/14 02:27:15;;;;;;;59.75;22.82;;;;;;;7.88;100.00;101536.42;1753149;81;25602;-52
2022/11/14 02:29:43;;;;;;;54.55;21.30;;;;;;;7.87;100.00;101532.13;1753233;81;25469;-50
2022/11/14 02:32:10;;;;;;;52.67;22.15;;;;;;;7.87;100.00;101533.47;1753091;81;25730;-51
2022/11/14 02:34:38;;;;;;;54.95;23.30;;;;;;;7.86;100.00;101522.41;1753208;81;27509;-50
2022/11/14 02:37:07;;;;;;;53.00;22.05;;;;;;;7.85;100.00;101518.91;1753108;81;25567;-50
2022/11/14 02:39:33;;;;;;;50.12;22.05;;;;;;;7.85;100.00;101518.91;1753109;81;25936;-50
2022/11/14 02:42:01;;;;;;;48.85;21.42;;;;;;;7.83;100.00;101521.06;1753232;81;25550;-50
2022/11/14 02:44:29;;;;;;;45.28;20.72;;;;;;;7.83;100.00;101521.58;1753417;81;25410;-50
2022/11/14 02:46:55;;;;;;;52.00;20.80;;;;;;;7.83;100.00;101517.53;1753233;81;27534;-50
2022/11/14 02:49:21;;;;;;;50.15;20.80;;;;;;;7.82;100.00;101513.23;1753208;81;32907;-53
2022/11/14 02:51:47;;;;;;;45.70;20.08;;;;;;;7.82;100.00;101512.69;1752924;81;25709;-54
2022/11/14 02:54:13;;;;;;;48.95;20.08;;;;;;;7.82;100.00;101516.73;1753231;81;25805;-54
2022/11/14 02:56:39;;;;;;;41.18;18.52;;;;;;;7.81;100.00;101506.22;1753520;81;32409;-53
2022/11/14 02:59:05;;;;;;;41.53;18.37;;;;;;;7.81;100.00;101515.09;1753464;81;28214;-50
2022/11/14 03:01:32;;;;;;;42.03;18.40;;;;;;;7.80;100.00;101509.45;1753157;81;25533;-52
2022/11/14 03:03:58;;;;;;;41.40;18.57;;;;;;;7.80;100.00;101511.34;1753284;81;25495;-50
2022/11/14 03:06:24;;;;;;;42.08;18.85;;;;;;;7.79;100.00;101506.47;1753242;81;25647;-50
2022/11/14 03:08:51;;;;;;;41.00;18.00;;;;;;;7.80;100.00;101508.11;1752948;81;25644;-49
2022/11/14 03:11:17;;;;;;;41.73;18.60;;;;;;;7.83;100.00;101516.19;1753276;81;27569;-51
2022/11/14 03:13:43;;;;;;;45.33;17.85;;;;;;;7.84;100.00;101507.84;1752919;81;25801;-50
2022/11/14 03:16:16;;;;;;;38.75;17.40;;;;;;;7.85;100.00;101502.75;1753193;81;25586;-50
2022/11/14 03:18:42;;;;;;;41.70;19.12;;;;;;;7.86;100.00;101498.97;1753067;81;25661;-50
2022/11/14 03:21:19;;;;;;;43.15;18.17;;;;;;;7.87;100.00;101502.48;1753454;81;25436;-50
2022/11/14 03:23:47;;;;;;;40.33;17.75;;;;;;;7.86;100.00;101500.31;1753215;81;27551;-50
2022/11/14 03:26:16;;;;;;;37.83;17.65;;;;;;;7.87;100.00;101495.76;1752547;81;27306;-50
2022/11/14 03:28:43;;;;;;;37.78;18.67;;;;;;;7.86;100.00;101492.23;1753300;81;25752;-50
2022/11/14 03:31:14;;;;;;;41.98;19.02;;;;;;;7.88;100.00;101497.36;1753130;81;25626;-51
2022/11/14 03:33:44;;;;;;;33.53;16.27;;;;;;;7.89;100.00;101499.00;1753411;81;25662;-51
2022/11/14 03:36:10;;;;;;;39.08;18.12;;;;;;;7.91;100.00;101498.73;1753170;81;27515;-50
2022/11/14 03:38:36;;;;;;;36.90;18.42;;;;;;;7.89;100.00;101498.19;1753323;81;33222;-50
2022/11/14 03:41:03;;;;;;;37.75;18.00;;;;;;;7.90;100.00;101499.28;1753454;81;25513;-50
2022/11/14 03:43:33;;;;;;;41.18;18.77;;;;;;;7.90;100.00;101497.94;1753285;81;25629;-50
2022/11/14 03:46:05;;;;;;;36.17;17.00;;;;;;;7.91;100.00;101498.19;1753301;81;25956;-50
2022/11/14 03:48:31;;;;;;;37.70;18.23;;;;;;;7.90;100.00;101492.55;1753062;81;27549;-51
2022/11/14 03:50:59;;;;;;;39.40;18.52;;;;;;;7.91;100.00;101490.11;1749568;81;25580;-51
2022/11/14 03:53:27;;;;;;;39.70;19.42;;;;;;;7.90;100.00;101489.02;1730718;82;25532;-50
2022/11/14 03:55:55;;;;;;;38.70;19.35;;;;;;;7.89;100.00;101494.95;1730738;82;25486;-50
2022/11/14 03:58:23;;;;;;;42.25;19.48;;;;;;;7.87;100.00;101487.67;1730669;82;25447;-50
2022/11/14 04:00:49;;;;;;;39.27;19.60;;;;;;;7.86;100.00;101484.70;1730831;82;27736;-51
2022/11/14 04:03:15;;;;;;;39.70;19.75;;;;;;;7.83;100.00;101479.31;1730791;82;25607;-50
2022/11/14 04:05:46;;;;;;;39.10;19.02;;;;;;;7.80;100.00;101477.67;1730432;82;25727;-51
2022/11/14 04:08:12;;;;;;;34.60;17.67;;;;;;;7.82;100.00;101479.02;1730371;82;25554;-50
2022/11/14 04:10:40;;;;;;;40.75;19.32;;;;;;;7.80;100.00;101473.64;1730712;82;25631;-51
2022/11/14 04:13:10;;;;;;;34.10;17.10;;;;;;;7.79;100.00;101473.34;1730772;82;27500;-51
2022/11/14 04:15:36;;;;;;;37.50;18.52;;;;;;;7.77;100.00;101475.50;1730382;82;25891;-51
2022/11/14 04:18:06;;;;;;;42.65;18.65;;;;;;;7.77;100.00;101474.16;1730643;82;25653;-50
2022/11/14 04:20:32;;;;;;;35.43;17.62;;;;;;;7.77;100.00;101475.50;1730868;82;25748;-50
2022/11/14 04:22:58;;;;;;;36.58;17.75;;;;;;;7.77;100.00;101469.56;1730834;82;25492;-49
2022/11/14 04:25:24;;;;;;;37.08;18.32;;;;;;;7.76;100.00;101476.02;1730587;82;27433;-50
2022/11/14 04:27:50;;;;;;;37.67;17.62;;;;;;;7.74;100.00;101474.13;1730698;82;25522;-50
2022/11/14 04:30:19;;;;;;;41.08;18.23;;;;;;;7.73;100.00;101470.34;1730630;82;25579;-51
2022/11/14 04:32:47;;;;;;;36.27;18.17;;;;;;;7.70;100.00;101471.69;1730819;82;25650;-50
2022/11/14 04:35:14;;;;;;;35.17;17.15;;;;;;;7.70;100.00;101466.84;1730662;82;25572;-50
2022/11/14 04:37:42;;;;;;;33.53;17.35;;;;;;;7.68;100.00;101465.76;1730649;82;26752;-50
2022/11/14 04:40:15;;;;;;;38.02;18.32;;;;;;;7.66;100.00;101463.32;1730530;82;25609;-50
2022/11/14 04:42:42;;;;;;;34.43;16.48;;;;;;;7.65;100.00;101460.34;1730675;82;25394;-50
2022/11/14 04:45:11;;;;;;;37.95;18.10;;;;;;;7.65;100.00;101464.37;1730610;82;25615;-51
2022/11/14 04:47:37;;;;;;;36.28;18.27;;;;;;;7.66;100.00;101467.36;1730735;82;32793;-50
2022/11/14 04:50:10;;;;;;;39.50;16.45;;;;;;;7.66;100.00;101464.67;1730562;82;27506;-51
2022/11/14 04:52:38;;;;;;;31.15;16.60;;;;;;;7.66;100.00;101461.97;1748648;81;25611;-50
2022/11/14 04:55:10;;;;;;;35.65;17.12;;;;;;;7.66;100.00;101459.80;1756182;81;25539;-50
2022/11/14 04:57:36;;;;;;;37.25;16.42;;;;;;;7.67;100.00;101460.88;1756186;81;25626;-50
2022/11/14 05:00:13;;;;;;;32.55;16.45;;;;;;;7.69;100.00;101458.48;1756501;81;32749;-53
2022/11/14 05:02:39;;;;;;;31.82;17.70;;;;;;;7.70;100.00;101457.42;1756502;81;27530;-50
2022/11/14 05:05:10;;;;;;;34.63;17.82;;;;;;;7.69;100.00;101451.20;1756216;81;25396;-50
2022/11/14 05:07:36;;;;;;;34.10;16.73;;;;;;;7.68;100.00;101454.98;1756228;81;25408;-49
2022/11/14 05:10:09;;;;;;;38.33;16.57;;;;;;;7.69;100.00;101453.89;1755582;81;25720;-49
2022/11/14 05:12:35;;;;;;;35.65;16.90;;;;;;;7.70;100.00;101452.03;1756330;81;25643;-49
2022/11/14 05:15:01;;;;;;;33.70;18.37;;;;;;;7.70;100.00;101452.03;1756262;81;27469;-49
2022/11/14 05:17:29;;;;;;;32.15;17.23;;;;;;;7.68;100.00;101441.52;1756209;81;25442;-49
2022/11/14 05:19:55;;;;;;;31.62;15.75;;;;;;;7.68;100.00;101452.30;1756267;81;25544;-50
2022/11/14 05:22:22;;;;;;;35.30;17.23;;;;;;;7.68;100.00;101450.95;1756164;81;35049;-50
2022/11/14 05:24:50;;;;;;;34.27;16.02;;;;;;;7.67;100.00;101443.92;1756462;81;25623;-49
2022/11/14 05:27:16;;;;;;;29.02;16.32;;;;;;;7.66;100.00;101444.98;1756252;81;27554;-50
2022/11/14 05:29:42;;;;;;;33.08;16.45;;;;;;;7.67;100.00;101446.62;1756135;81;25462;-49
2022/11/14 05:32:08;;;;;;;35.58;17.85;;;;;;;7.65;100.00;101450.91;1756064;81;25697;-49
2022/11/14 05:34:34;;;;;;;29.57;15.98;;;;;;;7.63;100.00;101442.84;1756154;81;25658;-50
2022/11/14 05:37:02;;;;;;;33.58;16.40;;;;;;;7.64;100.00;101443.93;1756420;81;25579;-50
2022/11/14 05:39:30;;;;;;;35.38;17.15;;;;;;;7.65;100.00;101445.53;1756278;81;28140;-49
2022/11/14 05:41:56;;;;;;;30.08;16.05;;;;;;;7.65;100.00;101444.19;1756190;81;27301;-49
2022/11/14 05:44:22;;;;;;;32.98;16.00;;;;;;;7.66;100.00;101450.37;1756215;81;25426;-50
2022/11/14 05:46:48;;;;;;;32.40;16.52;;;;;;;7.61;100.00;101445.79;1756341;81;25581;-49
2022/11/14 05:49:15;;;;;;;31.25;15.50;;;;;;;7.59;100.00;101447.91;1756278;81;32878;-49
2022/11/14 05:51:41;;;;;;;34.67;16.35;;;;;;;7.59;100.00;101454.64;1750507;81;27556;-49
2022/11/14 05:54:07;;;;;;;35.95;16.70;;;;;;;7.57;100.00;101453.30;1730399;82;25758;-50
2022/11/14 05:56:33;;;;;;;38.30;18.32;;;;;;;7.57;100.00;101452.75;1730564;82;25569;-49
2022/11/14 05:59:01;;;;;;;32.95;16.32;;;;;;;7.55;100.00;101454.89;1730540;82;25554;-49
2022/11/14 06:01:27;;;;;;;32.70;15.85;;;;;;;7.56;100.00;101450.31;1730160;82;25598;-49
2022/11/14 06:03:54;;;;;;;32.10;16.80;;;;;;;7.56;100.00;101452.49;1730692;82;28237;-49
2022/11/14 06:06:22;;;;;;;36.80;16.52;;;;;;;7.57;100.00;101451.95;1730396;82;27288;-49
2022/11/14 06:08:50;;;;;;;36.50;17.35;;;;;;;7.57;100.00;101444.67;1730504;82;25508;-50
2022/11/14 06:11:22;;;;;;;32.83;17.23;;;;;;;7.58;100.00;101450.89;1715355;82;25946;-49
2022/11/14 06:13:48;;;;;;;35.43;16.77;;;;;;;7.57;100.00;101448.71;1730653;82;25530;-53
2022/11/14 06:16:21;;;;;;;29.60;14.87;;;;;;;7.60;100.00;101454.13;1730683;82;27398;-50
2022/11/14 06:18:47;;;;;;;26.02;14.50;;;;;;;7.58;100.00;101451.69;1730569;82;25678;-49
2022/11/14 06:21:18;;;;;;;25.75;14.25;;;;;;;7.58;100.00;101460.31;1730641;82;25553;-52
2022/11/14 06:23:50;;;;;;;29.12;14.73;;;;;;;7.57;100.00;101456.78;1730350;82;25637;-50
2022/11/14 06:26:30;;;;;;;27.15;14.33;;;;;;;7.58;100.00;101460.31;1730640;82;25650;-50
2022/11/14 06:28:59;;;;;;;29.52;14.47;;;;;;;7.59;100.00;101461.38;1730573;82;27512;-50
2022/11/14 06:31:27;;;;;;;24.00;12.78;;;;;;;7.58;100.00;101462.46;1730515;82;25842;-50
2022/11/14 06:33:53;;;;;;;26.17;13.35;;;;;;;7.58;100.00;101465.70;1730053;82;25690;-50
2022/11/14 06:36:23;;;;;;;25.20;13.48;;;;;;;7.57;100.00;101467.55;1730486;82;26195;-50
2022/11/14 06:38:49;;;;;;;27.37;12.25;;;;;;;7.57;100.00;101462.72;1730614;82;25471;-49
2022/11/14 06:41:22;;;;;;;21.75;11.78;;;;;;;7.54;100.00;101462.69;1730667;82;29717;-49
2022/11/14 06:43:53;;;;;;;21.93;12.18;;;;;;;7.51;100.00;101463.74;1730555;82;25895;-50
2022/11/14 06:46:22;;;;;;;22.98;11.60;;;;;;;7.50;100.00;101463.48;1730710;82;25580;-49
2022/11/14 06:48:52;;;;;;;22.65;12.13;;;;;;;7.49;100.00;101468.03;1730444;82;25734;-49
2022/11/14 06:51:18;;;;;;;23.87;11.93;;;;;;;7.48;100.00;101473.16;1730590;82;25644;-49
2022/11/14 06:53:46;;;;;;;27.52;12.73;;;;;;;7.46;100.00;101473.42;1730546;82;28155;-51
2022/11/14 06:56:19;;;;;;;24.37;11.90;;;;;;;7.46;100.00;101472.62;1730490;82;25547;-49
2022/11/14 06:58:49;;;;;;;21.65;11.93;;;;;;;7.45;100.00;101473.13;1730620;82;25552;-50
2022/11/14 07:01:27;;;;;;;23.37;11.83;;;;;;;7.45;100.00;101469.09;1730968;82;25475;-50
2022/11/14 07:03:53;;;;;;;22.27;11.88;;;;;;;7.44;100.00;101463.45;1730620;82;25406;-51
2022/11/14 07:06:24;;;;;;;27.45;14.65;;;;;;;7.42;100.00;101465.59;1730776;82;28025;-49
2022/11/14 07:08:55;;;;;;;24.40;11.53;;;;;;;7.42;100.00;101462.91;1730891;82;25617;-49
2022/11/14 07:11:28;;;;;;;19.62;10.45;;;;;;;7.41;100.00;101462.62;1730927;82;25401;-50
2022/11/14 07:13:58;;;;;;;21.90;10.45;;;;;;;7.40;100.00;101464.22;1730986;82;26113;-52
2022/11/14 07:16:33;;;;;;;21.48;11.60;;;;;;;7.40;100.00;101464.22;1731036;82;25612;-53
2022/11/14 07:18:59;;;;;;;22.07;11.43;;;;;;;7.39;100.00;101466.63;1730051;82;28167;-52
2022/11/14 07:21:27;;;;;;;20.25;10.95;;;;;;;7.40;100.00;101473.09;1730601;82;27361;-51
2022/11/14 07:23:55;;;;;;;19.42;10.10;;;;;;;7.43;100.00;101471.78;1730889;82;25402;-49
2022/11/14 07:26:22;;;;;;;17.82;10.20;;;;;;;7.45;100.00;101466.41;1730821;82;26865;-48
2022/11/14 07:28:49;;;;;;;20.82;11.20;;;;;;;7.46;100.00;101464.00;1730850;82;25563;-48
2022/11/14 07:31:18;;;;;;;17.62;9.33;;;;;;;7.48;100.00;101455.13;1730867;82;27431;-49
2022/11/14 07:33:45;;;;;;;;;;;;;;;7.48;100.00;101459.16;1733358;82;25473;-48
2022/11/14 07:36:14;;;;;;;12.07;7.22;;;;;;;7.46;100.00;101460.50;1730852;82;25582;-49
2022/11/14 07:38:41;;;;;;;15.20;8.35;;;;;;;7.44;100.00;101460.76;1730867;82;25640;-49
2022/11/14 07:41:14;;;;;;;14.35;7.72;;;;;;;7.44;100.00;101454.55;1730905;82;25623;-50
2022/11/14 07:43:42;;;;;;;15.63;8.20;;;;;;;7.44;100.00;101459.41;1730897;82;28256;-49
2022/11/14 07:46:15;;;;;;;13.50;7.20;;;;;;;7.43;100.00;101452.39;1730761;82;25564;-49
2022/11/14 07:48:43;;;;;;;14.18;8.35;;;;;;;7.43;100.00;101452.39;1730934;82;25570;-49
2022/11/14 07:51:17;;;;;;;12.85;7.42;;;;;;;7.42;100.00;101448.10;1730834;82;25589;-50
2022/11/14 07:53:44;;;;;;;13.00;7.22;;;;;;;7.44;100.00;101446.47;1730830;82;25444;-49
2022/11/14 07:56:12;;;;;;;12.63;7.58;;;;;;;7.41;100.00;101443.77;1730867;82;27508;-50
2022/11/14 07:58:40;;;;;;;11.63;6.70;;;;;;;7.44;100.00;101454.55;1730755;82;25481;-50
2022/11/14 08:01:10;;;;;;;12.67;7.23;;;;;;;7.43;100.00;101450.25;1731107;82;25583;-50
2022/11/14 08:03:36;;;;;;;11.88;7.05;;;;;;;7.47;100.00;101452.69;1730846;82;25666;-50
2022/11/14 08:06:07;;;;;;;11.45;6.72;;;;;;;7.54;100.00;101455.16;1730777;82;25585;-49
2022/11/14 08:08:33;;;;;;;11.40;6.10;;;;;;;7.57;100.00;101446.02;1730870;82;27558;-49
2022/11/14 08:11:01;;;;;;;12.43;6.75;;;;;;;7.61;100.00;101449.83;1730753;82;25616;-49
2022/11/14 08:13:29;;;;;;;11.20;6.15;;;;;;;7.62;100.00;101452.78;1730815;82;25389;-49
2022/11/14 08:15:58;;;;;;;9.63;6.20;;;;;;;7.65;100.00;101441.48;1730876;82;25461;-50
2022/11/14 08:18:25;;;;;;;10.50;5.72;;;;;;;7.65;99.81;101442.84;1731057;82;25639;-49
2022/11/14 08:20:51;;;;;;;15.85;7.45;;;;;;;7.64;99.34;101445.27;1731004;82;27410;-49
2022/11/14 08:23:17;;;;;;;9.18;5.37;;;;;;;7.62;99.17;101447.94;1730822;82;25631;-49
2022/11/14 08:25:43;;;;;;;11.20;6.47;;;;;;;7.60;98.91;101439.31;1730814;82;25464;-50
2022/11/14 08:28:10;;;;;;;11.45;6.25;;;;;;;7.58;98.83;101430.69;1730740;82;25560;-49
2022/11/14 08:30:37;;;;;;;10.68;5.92;;;;;;;7.55;98.92;101423.93;1730855;82;25591;-51
2022/11/14 08:33:07;;;;;;;12.10;6.50;;;;;;;7.57;98.93;101429.06;1730796;82;27458;-49
2022/11/14 08:35:33;;;;;;;9.63;6.00;;;;;;;7.55;98.97;101427.97;1730780;82;25460;-49
2022/11/14 08:38:01;;;;;;;12.78;6.00;;;;;;;7.59;99.33;101426.91;1730770;82;25404;-49
2022/11/14 08:40:29;;;;;;;9.90;6.22;;;;;;;7.60;99.16;101424.50;1730235;81;25643;-50
2022/11/14 08:43:02;;;;;;;10.75;6.10;;;;;;;7.59;98.73;101422.33;1730817;82;25419;-51
2022/11/14 08:45:29;;;;;;;9.70;5.85;;;;;;;7.56;98.52;101421.53;1730797;82;27661;-49
2022/11/14 08:47:57;;;;;;;9.20;6.00;;;;;;;7.55;98.74;101417.20;1730700;82;25509;-53
2022/11/14 08:50:26;;;;;;;10.03;5.80;;;;;;;7.57;98.79;101416.40;1730875;82;25629;-50
2022/11/14 08:52:52;;;;;;;9.95;6.00;;;;;;;7.56;98.75;101414.80;1732304;82;25625;-50
2022/11/14 08:55:20;;;;;;;8.88;5.30;;;;;;;7.57;98.74;101423.13;1735433;82;25215;-53
2022/11/14 08:57:48;;;;;;;9.75;5.97;;;;;;;7.57;98.78;101418.29;1735325;82;27634;-50
2022/11/14 09:00:18;;;;;;;9.73;6.17;;;;;;;7.57;98.79;101413.70;1753409;81;25585;-50
2022/11/14 09:02:45;;;;;;;8.35;4.78;;;;;;;7.58;98.92;101419.38;1753555;81;25582;-50
2022/11/14 09:05:12;;;;;;;5.62;3.92;;;;;;;7.59;98.61;101420.98;1735253;82;25474;-49
2022/11/14 09:07:42;;;;;;;7.42;4.62;;;;;;;7.57;98.54;101415.05;1735207;82;25449;-49
2022/11/14 09:10:10;;;;;;;7.55;4.37;;;;;;;7.54;98.11;101415.56;1735329;82;27493;-50
2022/11/14 09:12:36;;;;;;;5.70;4.40;;;;;;;7.53;98.30;101414.52;1735159;82;25622;-50
2022/11/14 09:15:05;;;;;;;7.85;4.10;;;;;;;7.53;98.56;101405.09;1735251;82;25575;-50
2022/11/14 09:17:31;;;;;;;6.22;4.22;;;;;;;7.54;98.83;101408.84;1735400;82;25538;-50
2022/11/14 09:19:57;;;;;;;6.12;4.20;;;;;;;7.58;98.97;101409.95;1735260;82;32378;-50
2022/11/14 09:22:23;;;;;;;8.50;4.37;;;;;;;7.60;99.13;101398.92;1735241;82;27596;-50
2022/11/14 09:24:50;;;;;;;6.72;4.65;;;;;;;7.65;99.06;101397.60;1735118;82;27279;-50
2022/11/14 09:27:18;;;;;;;10.35;5.72;;;;;;;7.67;99.09;101394.91;1735315;82;25468;-53
2022/11/14 09:29:46;;;;;;;9.30;4.58;;;;;;;7.73;99.69;101391.72;1735206;82;25825;-48
2022/11/14 09:32:16;;;;;;;10.70;5.40;;;;;;;7.75;98.83;101389.56;1735244;82;25416;-50
2022/11/14 09:34:44;;;;;;;11.78;4.92;;;;;;;7.75;98.18;101387.42;1735275;82;27586;-49
2022/11/14 09:37:12;;;;;;;6.60;4.12;;;;;;;7.72;97.86;101370.44;1735150;82;25477;-49
2022/11/14 09:39:39;;;;;;;7.55;4.00;;;;;;;7.74;98.50;101366.94;1735171;82;25526;-50
2022/11/14 09:42:17;;;;;;;7.10;4.47;;;;;;;7.80;98.68;101369.94;1753547;81;25590;-52
2022/11/14 09:45:01;;;;;;;6.35;4.25;;;;;;;7.83;98.72;101364.83;1752798;81;25599;-50
2022/11/14 09:47:49;;;;;;;7.67;4.22;;;;;;;7.86;98.10;101368.86;1752078;81;28044;-51
2022/11/14 09:50:24;;;;;;;6.70;4.17;;;;;;;7.85;97.61;101364.56;1735129;82;25465;-50
2022/11/14 09:52:59;;;;;;;6.35;3.72;;;;;;;7.86;97.53;101357.54;1732494;81;25630;-50
2022/11/14 09:55:33;;;;;;;6.42;3.85;;;;;;;7.86;97.28;101361.58;1716216;83;25753;-49
2022/11/14 09:58:03;;;;;;;4.95;3.62;;;;;;;7.88;97.55;101355.93;1724841;83;25486;-49
2022/11/14 10:00:50;;;;;;;6.47;3.30;;;;;;;7.93;97.20;101358.64;1724830;83;29678;-49
2022/11/14 10:03:31;;;;;;;6.10;3.67;;;;;;;7.94;96.67;101366.20;1723951;83;25694;-51
2022/11/14 10:06:36;;;;;;;5.60;3.60;;;;;;;7.91;96.03;101359.45;1724651;82;25405;-48
2022/11/14 10:09:29;;;;;;;6.95;3.65;;;;;;;7.92;96.37;101358.39;1723995;83;25564;-49
2022/11/14 10:12:18;;;;;;;7.72;3.75;;;;;;;7.95;97.08;101354.34;1724827;83;25542;-50
2022/11/14 10:15:16;;;;;;;7.80;3.90;;;;;;;8.00;97.14;101352.48;1724973;83;29984;-49
2022/11/14 10:18:05;;;;;;;7.97;3.87;;;;;;;7.98;96.20;101350.57;1724693;83;27342;-49
2022/11/14 10:21:02;;;;;;;5.85;3.85;;;;;;;7.98;95.98;101347.08;1724231;83;34804;-51
2022/11/14 10:23:48;;;;;;;7.90;4.08;;;;;;;7.97;96.11;101350.31;1723587;82;25760;-49
2022/11/14 10:26:23;;;;;;;5.37;4.22;;;;;;;8.01;96.17;101350.59;1723161;83;25981;-48
2022/11/14 10:29:05;;;;;;;5.60;4.05;;;;;;;7.99;95.39;101354.09;1723358;82;27427;-48
2022/11/14 10:32:17;;;;;;;8.08;4.55;;;;;;;7.96;95.21;101345.99;1667924;85;25881;-48
2022/11/14 10:35:00;;;;;;;7.78;4.87;;;;;;;7.95;95.39;101342.22;1669230;86;25656;-48
2022/11/14 10:37:51;;;;;;;10.55;6.00;;;;;;;7.95;95.46;101337.66;1669220;86;25675;-48
2022/11/14 10:40:40;;;;;;;9.93;5.67;;;;;;;7.96;95.31;101337.11;1669276;86;25544;-45
2022/11/14 10:43:24;;;;;;;9.40;6.30;;;;;;;7.99;95.36;101335.23;1667569;86;27529;-49
2022/11/14 10:46:18;;;;;;;14.23;6.42;;;;;;;7.97;95.03;101331.45;1669175;86;25714;-47
2022/11/14 10:48:51;;;;;;;10.48;6.30;;;;;;;7.96;94.88;101331.17;1669141;86;25602;-46
2022/11/14 10:51:23;;;;;;;12.88;7.90;;;;;;;7.98;94.72;101333.61;1669211;86;25564;-47
2022/11/14 10:54:15;;;;;;;10.98;6.85;;;;;;;7.98;94.77;101321.48;1671397;85;25684;-46
2022/11/14 10:56:55;;;;;;;13.10;8.25;;;;;;;7.98;94.91;101326.33;1674328;85;27540;-48
2022/11/14 10:59:23;;;;;;;;;;;;;;;7.99;94.75;101307.75;1676803;85;25694;-49
2022/11/14 11:01:55;;;;;;;12.70;7.58;;;;;;;8.00;94.88;101303.16;1693510;84;25553;-49
2022/11/14 11:04:29;;;;;;;12.93;7.85;;;;;;;8.01;94.95;101304.79;1674295;85;25484;-50
2022/11/14 11:11:28;;;;;;;12.25;7.70;;;;;;;8.00;94.64;101301.81;1674287;85;25456;-50
2022/11/14 11:12:44;;;;;;;12.73;7.97;;;;;;;7.99;93.99;101305.05;1735125;82;25624;-50
2022/11/14 11:15:23;;;;;;;14.28;8.70;;;;;;;7.98;94.20;101308.01;1735209;82;25624;-50
2022/11/14 11:18:07;;;;;;;15.33;8.87;;;;;;;7.98;94.00;101291.84;1753760;81;25487;-49
2022/11/14 11:20:39;;;;;;;15.58;9.20;;;;;;;7.97;93.43;101300.48;1732582;81;25531;-48
2022/11/14 11:23:12;;;;;;;15.98;9.25;;;;;;;7.93;93.48;101292.64;1753490;81;27552;-46
2022/11/14 11:25:40;;;;;;;16.27;9.60;;;;;;;7.94;94.05;101290.77;1753352;81;25620;-47
2022/11/14 11:28:15;;;;;;;18.90;9.63;;;;;;;7.98;94.34;101289.15;1727638;81;25561;-47
2022/11/14 11:30:59;;;;;;;18.02;9.85;;;;;;;7.98;94.25;101280.52;1753024;81;25533;-51
2022/11/14 11:33:29;;;;;;;15.55;8.85;;;;;;;7.99;94.14;101279.45;1735242;82;25473;-49